sensor_id;sensor_type;location;lat;lon;timestamp;temperature;humidity
11840;DHT22;5979;50.800;4.904;2022-09-09T00:04:38;16.30;99.90
11840;DHT22;5979;50.800;4.904;2022-09-09T00:07:30;16.30;99.90
11840;DHT22;5979;50.800;4.904;2022-09-09T00:10:19;16.20;99.90
11840;DHT22;5979;50.800;4.904;2022-09-09T00:15:40;16.20;99.90
11840;DHT22;5979;50.800;4.904;2022-09-09T00:23:25;16.20;99.90
11840;DHT22;5979;50.800;4.904;2022-09-09T00:28:30;16.20;99.90
11840;DHT22;5979;50.800;4.904;2022-09-09T00:31:14;16.20;99.90
11840;DHT22;5979;50.800;4.904;2022-09-09T00:33:41;16.20;99.90
11840;DHT22;5979;50.800;4.904;2022-09-09T00:36:18;16.20;99.90
11840;DHT22;5979;50.800;4.904;2022-09-09T00:38:49;16.20;99.90
11840;DHT22;5979;50.800;4.904;2022-09-09T00:49:33;16.30;99.90
11840;DHT22;5979;50.800;4.904;2022-09-09T00:55:19;16.40;99.90
11840;DHT22;5979;50.800;4.904;2022-09-09T00:57:49;16.40;99.90
11840;DHT22;5979;50.800;4.904;2022-09-09T01:08:01;16.50;99.90
11840;DHT22;5979;50.800;4.904;2022-09-09T01:10:54;16.50;99.90
11840;DHT22;5979;50.800;4.904;2022-09-09T01:13:29;16.50;99.90
11840;DHT22;5979;50.800;4.904;2022-09-09T01:15:58;16.50;99.90
11840;DHT22;5979;50.800;4.904;2022-09-09T01:18:29;16.40;99.90
11840;DHT22;5979;50.800;4.904;2022-09-09T01:26:44;16.40;99.90
11840;DHT22;5979;50.800;4.904;2022-09-09T01:29:16;16.40;99.90
11840;DHT22;5979;50.800;4.904;2022-09-09T01:31:56;16.40;99.90
11840;DHT22;5979;50.800;4.904;2022-09-09T01:34:24;16.40;99.90
11840;DHT22;5979;50.800;4.904;2022-09-09T01:37:06;16.40;99.90
11840;DHT22;5979;50.800;4.904;2022-09-09T01:39:38;16.40;99.90
11840;DHT22;5979;50.800;4.904;2022-09-09T01:42:07;16.40;99.90
11840;DHT22;5979;50.800;4.904;2022-09-09T01:44:34;16.40;99.90
11840;DHT22;5979;50.800;4.904;2022-09-09T01:47:01;16.40;99.90
11840;DHT22;5979;50.800;4.904;2022-09-09T01:49:27;16.40;99.90
11840;DHT22;5979;50.800;4.904;2022-09-09T01:51:55;16.40;99.90
11840;DHT22;5979;50.800;4.904;2022-09-09T01:54:22;16.40;99.90
11840;DHT22;5979;50.800;4.904;2022-09-09T02:02:36;16.50;99.90
11840;DHT22;5979;50.800;4.904;2022-09-09T02:07:48;16.50;99.90
11840;DHT22;5979;50.800;4.904;2022-09-09T02:10:31;16.50;99.90
11840;DHT22;5979;50.800;4.904;2022-09-09T02:13:07;16.50;99.90
11840;DHT22;5979;50.800;4.904;2022-09-09T02:15:43;16.50;99.90
11840;DHT22;5979;50.800;4.904;2022-09-09T02:18:12;16.40;99.90
11840;DHT22;5979;50.800;4.904;2022-09-09T02:20:39;16.40;99.90
11840;DHT22;5979;50.800;4.904;2022-09-09T02:23:07;16.40;99.90
11840;DHT22;5979;50.800;4.904;2022-09-09T02:25:35;16.40;99.90
11840;DHT22;5979;50.800;4.904;2022-09-09T02:28:04;16.40;99.90
11840;DHT22;5979;50.800;4.904;2022-09-09T02:30:32;16.40;99.90
11840;DHT22;5979;50.800;4.904;2022-09-09T02:33:01;16.50;99.90
11840;DHT22;5979;50.800;4.904;2022-09-09T02:35:29;16.40;99.90
11840;DHT22;5979;50.800;4.904;2022-09-09T02:38:01;16.40;99.90
11840;DHT22;5979;50.800;4.904;2022-09-09T02:40:27;16.40;99.90
11840;DHT22;5979;50.800;4.904;2022-09-09T02:42:54;16.40;99.90
11840;DHT22;5979;50.800;4.904;2022-09-09T02:45:26;16.40;99.90
11840;DHT22;5979;50.800;4.904;2022-09-09T02:48:17;16.40;99.90
11840;DHT22;5979;50.800;4.904;2022-09-09T02:53:58;16.40;99.90
11840;DHT22;5979;50.800;4.904;2022-09-09T02:56:27;16.30;99.90
11840;DHT22;5979;50.800;4.904;2022-09-09T02:58:55;16.30;99.90
11840;DHT22;5979;50.800;4.904;2022-09-09T03:01:21;16.30;99.90
11840;DHT22;5979;50.800;4.904;2022-09-09T03:03:47;16.30;99.90
11840;DHT22;5979;50.800;4.904;2022-09-09T03:06:13;16.30;99.90
11840;DHT22;5979;50.800;4.904;2022-09-09T03:08:40;16.30;99.90
11840;DHT22;5979;50.800;4.904;2022-09-09T03:11:05;16.30;99.90
11840;DHT22;5979;50.800;4.904;2022-09-09T03:13:31;16.30;99.90
11840;DHT22;5979;50.800;4.904;2022-09-09T03:15:56;16.20;99.90
11840;DHT22;5979;50.800;4.904;2022-09-09T03:18:22;16.20;99.90
11840;DHT22;5979;50.800;4.904;2022-09-09T03:20:48;16.20;99.90
11840;DHT22;5979;50.800;4.904;2022-09-09T03:23:14;16.20;99.90
11840;DHT22;5979;50.800;4.904;2022-09-09T03:25:46;16.20;99.90
11840;DHT22;5979;50.800;4.904;2022-09-09T03:28:13;16.20;99.90
11840;DHT22;5979;50.800;4.904;2022-09-09T03:30:38;16.20;99.90
11840;DHT22;5979;50.800;4.904;2022-09-09T03:33:04;16.20;99.90
11840;DHT22;5979;50.800;4.904;2022-09-09T03:35:30;16.20;99.90
11840;DHT22;5979;50.800;4.904;2022-09-09T03:37:55;16.10;99.90
11840;DHT22;5979;50.800;4.904;2022-09-09T03:40:21;16.10;99.90
11840;DHT22;5979;50.800;4.904;2022-09-09T03:42:47;16.20;99.90
11840;DHT22;5979;50.800;4.904;2022-09-09T03:45:13;16.20;99.90
11840;DHT22;5979;50.800;4.904;2022-09-09T03:47:39;16.20;99.90
11840;DHT22;5979;50.800;4.904;2022-09-09T03:50:06;16.20;99.90
11840;DHT22;5979;50.800;4.904;2022-09-09T03:52:35;16.20;99.90
11840;DHT22;5979;50.800;4.904;2022-09-09T03:55:01;16.20;99.90
11840;DHT22;5979;50.800;4.904;2022-09-09T03:57:27;16.20;99.90
11840;DHT22;5979;50.800;4.904;2022-09-09T03:59:52;16.20;99.90
11840;DHT22;5979;50.800;4.904;2022-09-09T04:02:18;16.20;99.90
11840;DHT22;5979;50.800;4.904;2022-09-09T04:04:43;16.10;99.90
11840;DHT22;5979;50.800;4.904;2022-09-09T04:07:09;16.20;99.90
11840;DHT22;5979;50.800;4.904;2022-09-09T04:09:35;16.10;99.90
11840;DHT22;5979;50.800;4.904;2022-09-09T04:12:01;16.10;99.90
11840;DHT22;5979;50.800;4.904;2022-09-09T04:14:27;16.10;99.90
11840;DHT22;5979;50.800;4.904;2022-09-09T04:16:54;16.10;99.90
11840;DHT22;5979;50.800;4.904;2022-09-09T04:19:20;16.10;99.90
11840;DHT22;5979;50.800;4.904;2022-09-09T04:21:46;16.00;99.90
11840;DHT22;5979;50.800;4.904;2022-09-09T04:24:15;16.00;99.90
11840;DHT22;5979;50.800;4.904;2022-09-09T04:26:41;16.00;99.90
11840;DHT22;5979;50.800;4.904;2022-09-09T04:29:07;16.00;99.90
11840;DHT22;5979;50.800;4.904;2022-09-09T04:31:33;16.00;99.90
11840;DHT22;5979;50.800;4.904;2022-09-09T04:33:59;16.00;99.90
11840;DHT22;5979;50.800;4.904;2022-09-09T04:36:31;16.00;99.90
11840;DHT22;5979;50.800;4.904;2022-09-09T04:38:57;16.00;99.90
11840;DHT22;5979;50.800;4.904;2022-09-09T04:41:23;16.00;99.90
11840;DHT22;5979;50.800;4.904;2022-09-09T04:43:49;16.00;99.90
11840;DHT22;5979;50.800;4.904;2022-09-09T04:46:15;16.00;99.90
11840;DHT22;5979;50.800;4.904;2022-09-09T04:48:42;16.00;99.90
11840;DHT22;5979;50.800;4.904;2022-09-09T04:51:12;16.00;99.90
11840;DHT22;5979;50.800;4.904;2022-09-09T04:53:38;16.00;99.90
11840;DHT22;5979;50.800;4.904;2022-09-09T04:56:13;16.00;99.90
11840;DHT22;5979;50.800;4.904;2022-09-09T04:58:40;16.00;99.90
11840;DHT22;5979;50.800;4.904;2022-09-09T05:03:39;16.00;99.90
11840;DHT22;5979;50.800;4.904;2022-09-09T05:06:11;16.10;99.90
11840;DHT22;5979;50.800;4.904;2022-09-09T05:08:39;16.10;99.90
11840;DHT22;5979;50.800;4.904;2022-09-09T05:13:45;16.10;99.90
11840;DHT22;5979;50.800;4.904;2022-09-09T05:16:12;16.10;99.90
11840;DHT22;5979;50.800;4.904;2022-09-09T05:18:39;16.10;99.90
11840;DHT22;5979;50.800;4.904;2022-09-09T05:21:05;16.00;99.90
11840;DHT22;5979;50.800;4.904;2022-09-09T05:23:32;16.10;99.90
11840;DHT22;5979;50.800;4.904;2022-09-09T05:25:59;16.10;99.90
11840;DHT22;5979;50.800;4.904;2022-09-09T05:28:26;16.10;99.90
11840;DHT22;5979;50.800;4.904;2022-09-09T05:31:03;16.00;99.90
11840;DHT22;5979;50.800;4.904;2022-09-09T05:33:30;16.10;99.90
11840;DHT22;5979;50.800;4.904;2022-09-09T05:35:58;16.00;99.90
11840;DHT22;5979;50.800;4.904;2022-09-09T05:38:24;16.10;99.90
11840;DHT22;5979;50.800;4.904;2022-09-09T05:40:51;16.10;99.90
11840;DHT22;5979;50.800;4.904;2022-09-09T05:43:20;16.20;99.90
11840;DHT22;5979;50.800;4.904;2022-09-09T05:46:08;16.20;99.90
11840;DHT22;5979;50.800;4.904;2022-09-09T05:48:37;16.30;99.90
11840;DHT22;5979;50.800;4.904;2022-09-09T05:51:05;16.30;99.90
11840;DHT22;5979;50.800;4.904;2022-09-09T05:53:32;16.40;99.90
11840;DHT22;5979;50.800;4.904;2022-09-09T05:56:07;16.50;99.90
11840;DHT22;5979;50.800;4.904;2022-09-09T05:58:36;16.60;99.90
11840;DHT22;5979;50.800;4.904;2022-09-09T06:03:30;16.80;99.90
11840;DHT22;5979;50.800;4.904;2022-09-09T06:06:01;16.90;99.90
11840;DHT22;5979;50.800;4.904;2022-09-09T06:08:27;17.00;99.90
11840;DHT22;5979;50.800;4.904;2022-09-09T06:10:53;17.30;99.90
11840;DHT22;5979;50.800;4.904;2022-09-09T06:13:28;17.50;99.90
11840;DHT22;5979;50.800;4.904;2022-09-09T06:15:53;17.80;99.90
11840;DHT22;5979;50.800;4.904;2022-09-09T06:18:19;18.10;99.90
11840;DHT22;5979;50.800;4.904;2022-09-09T06:21:02;18.40;99.90
11840;DHT22;5979;50.800;4.904;2022-09-09T06:23:30;18.50;99.90
11840;DHT22;5979;50.800;4.904;2022-09-09T06:28:27;18.60;99.90
11840;DHT22;5979;50.800;4.904;2022-09-09T06:31:04;18.50;99.90
11840;DHT22;5979;50.800;4.904;2022-09-09T06:33:35;18.40;99.90
11840;DHT22;5979;50.800;4.904;2022-09-09T06:36:02;18.40;99.90
11840;DHT22;5979;50.800;4.904;2022-09-09T06:38:29;18.50;99.90
11840;DHT22;5979;50.800;4.904;2022-09-09T06:40:55;18.40;99.90
11840;DHT22;5979;50.800;4.904;2022-09-09T06:43:24;18.40;99.90
11840;DHT22;5979;50.800;4.904;2022-09-09T06:46:14;18.40;99.90
11840;DHT22;5979;50.800;4.904;2022-09-09T06:48:40;18.30;99.90
11840;DHT22;5979;50.800;4.904;2022-09-09T06:51:20;18.30;99.90
11840;DHT22;5979;50.800;4.904;2022-09-09T06:53:47;18.40;99.90
11840;DHT22;5979;50.800;4.904;2022-09-09T06:56:28;18.40;99.90
11840;DHT22;5979;50.800;4.904;2022-09-09T06:58:55;18.40;99.90
11840;DHT22;5979;50.800;4.904;2022-09-09T07:01:26;18.60;99.90
11840;DHT22;5979;50.800;4.904;2022-09-09T07:03:55;18.60;99.90
11840;DHT22;5979;50.800;4.904;2022-09-09T07:06:23;18.60;99.90
11840;DHT22;5979;50.800;4.904;2022-09-09T07:08:51;18.60;99.90
11840;DHT22;5979;50.800;4.904;2022-09-09T07:11:19;18.70;99.90
11840;DHT22;5979;50.800;4.904;2022-09-09T07:13:45;18.60;99.90
11840;DHT22;5979;50.800;4.904;2022-09-09T07:16:16;18.60;99.90
11840;DHT22;5979;50.800;4.904;2022-09-09T07:18:42;18.60;99.90
11840;DHT22;5979;50.800;4.904;2022-09-09T07:21:11;18.60;99.90
11840;DHT22;5979;50.800;4.904;2022-09-09T07:23:40;18.60;99.90
11840;DHT22;5979;50.800;4.904;2022-09-09T07:26:10;18.50;99.90
11840;DHT22;5979;50.800;4.904;2022-09-09T07:28:37;18.50;99.90
11840;DHT22;5979;50.800;4.904;2022-09-09T07:31:04;18.40;99.90
11840;DHT22;5979;50.800;4.904;2022-09-09T07:33:32;18.40;99.90
11840;DHT22;5979;50.800;4.904;2022-09-09T07:36:21;18.30;99.90
11840;DHT22;5979;50.800;4.904;2022-09-09T07:38:49;18.30;99.90
11840;DHT22;5979;50.800;4.904;2022-09-09T07:41:20;18.30;99.90
11840;DHT22;5979;50.800;4.904;2022-09-09T07:43:48;18.30;99.90
11840;DHT22;5979;50.800;4.904;2022-09-09T07:46:15;18.30;99.90
11840;DHT22;5979;50.800;4.904;2022-09-09T07:48:45;18.30;99.90
11840;DHT22;5979;50.800;4.904;2022-09-09T07:51:14;18.30;99.90
11840;DHT22;5979;50.800;4.904;2022-09-09T07:53:42;18.30;99.90
11840;DHT22;5979;50.800;4.904;2022-09-09T07:56:10;18.30;99.90
11840;DHT22;5979;50.800;4.904;2022-09-09T07:58:37;18.30;99.90
11840;DHT22;5979;50.800;4.904;2022-09-09T08:01:16;18.40;99.90
11840;DHT22;5979;50.800;4.904;2022-09-09T08:03:44;18.40;99.90
11840;DHT22;5979;50.800;4.904;2022-09-09T08:06:11;18.40;99.90
11840;DHT22;5979;50.800;4.904;2022-09-09T08:08:38;18.50;99.90
11840;DHT22;5979;50.800;4.904;2022-09-09T08:11:13;18.60;99.90
11840;DHT22;5979;50.800;4.904;2022-09-09T08:13:43;18.70;99.90
11840;DHT22;5979;50.800;4.904;2022-09-09T08:16:15;18.80;99.90
11840;DHT22;5979;50.800;4.904;2022-09-09T08:18:41;18.90;99.90
11840;DHT22;5979;50.800;4.904;2022-09-09T08:21:21;18.90;99.90
11840;DHT22;5979;50.800;4.904;2022-09-09T08:23:49;18.90;99.90
11840;DHT22;5979;50.800;4.904;2022-09-09T08:26:17;18.90;99.90
11840;DHT22;5979;50.800;4.904;2022-09-09T08:28:48;18.80;99.90
11840;DHT22;5979;50.800;4.904;2022-09-09T08:31:18;18.80;99.90
11840;DHT22;5979;50.800;4.904;2022-09-09T08:33:44;18.80;99.90
11840;DHT22;5979;50.800;4.904;2022-09-09T08:36:15;18.80;99.90
11840;DHT22;5979;50.800;4.904;2022-09-09T08:38:42;18.90;99.90
11840;DHT22;5979;50.800;4.904;2022-09-09T08:44:10;19.40;99.90
11840;DHT22;5979;50.800;4.904;2022-09-09T08:46:56;19.50;99.90
11840;DHT22;5979;50.800;4.904;2022-09-09T08:49:45;19.50;99.90
11840;DHT22;5979;50.800;4.904;2022-09-09T08:52:25;19.60;99.90
11840;DHT22;5979;50.800;4.904;2022-09-09T08:54:57;19.60;99.90
11840;DHT22;5979;50.800;4.904;2022-09-09T08:57:26;19.70;99.90
11840;DHT22;5979;50.800;4.904;2022-09-09T08:59:55;19.70;99.90
11840;DHT22;5979;50.800;4.904;2022-09-09T09:02:42;19.70;99.90
11840;DHT22;5979;50.800;4.904;2022-09-09T09:05:42;19.70;99.90
11840;DHT22;5979;50.800;4.904;2022-09-09T09:11:10;19.50;99.90
11840;DHT22;5979;50.800;4.904;2022-09-09T09:14:04;19.40;99.90
11840;DHT22;5979;50.800;4.904;2022-09-09T09:16:41;19.50;99.90
11840;DHT22;5979;50.800;4.904;2022-09-09T09:19:15;19.50;99.90
11840;DHT22;5979;50.800;4.904;2022-09-09T09:21:43;19.50;99.90
11840;DHT22;5979;50.800;4.904;2022-09-09T09:24:19;19.50;99.90
11840;DHT22;5979;50.800;4.904;2022-09-09T09:26:46;19.50;99.90
11840;DHT22;5979;50.800;4.904;2022-09-09T09:29:17;19.30;99.90
11840;DHT22;5979;50.800;4.904;2022-09-09T09:31:55;19.10;99.90
11840;DHT22;5979;50.800;4.904;2022-09-09T09:34:23;19.00;99.90
11840;DHT22;5979;50.800;4.904;2022-09-09T09:36:57;18.80;99.90
11840;DHT22;5979;50.800;4.904;2022-09-09T09:39:29;18.60;99.90
11840;DHT22;5979;50.800;4.904;2022-09-09T09:41:55;18.50;99.90
11840;DHT22;5979;50.800;4.904;2022-09-09T09:44:28;18.40;99.90
11840;DHT22;5979;50.800;4.904;2022-09-09T09:47:13;18.20;99.90
11840;DHT22;5979;50.800;4.904;2022-09-09T09:49:54;18.10;99.90
11840;DHT22;5979;50.800;4.904;2022-09-09T09:52:28;18.10;99.90
11840;DHT22;5979;50.800;4.904;2022-09-09T09:54:55;18.00;99.90
11840;DHT22;5979;50.800;4.904;2022-09-09T09:57:28;18.00;99.90
11840;DHT22;5979;50.800;4.904;2022-09-09T10:00:13;18.00;99.90
11840;DHT22;5979;50.800;4.904;2022-09-09T10:02:41;18.00;99.90
11840;DHT22;5979;50.800;4.904;2022-09-09T10:05:29;18.00;99.90
11840;DHT22;5979;50.800;4.904;2022-09-09T10:08:10;18.00;99.90
11840;DHT22;5979;50.800;4.904;2022-09-09T10:11:04;18.00;99.90
11840;DHT22;5979;50.800;4.904;2022-09-09T10:16:54;18.00;99.90
11840;DHT22;5979;50.800;4.904;2022-09-09T10:19:35;18.10;99.90
11840;DHT22;5979;50.800;4.904;2022-09-09T10:31:02;18.50;99.90
11840;DHT22;5979;50.800;4.904;2022-09-09T10:38:45;18.70;99.90
11840;DHT22;5979;50.800;4.904;2022-09-09T10:44:21;18.70;99.90
11840;DHT22;5979;50.800;4.904;2022-09-09T10:55:28;19.00;99.90
11840;DHT22;5979;50.800;4.904;2022-09-09T10:58:00;19.10;99.90
11840;DHT22;5979;50.800;4.904;2022-09-09T11:03:03;19.20;99.90
11840;DHT22;5979;50.800;4.904;2022-09-09T11:05:44;19.30;99.90
11840;DHT22;5979;50.800;4.904;2022-09-09T11:08:21;19.40;99.90
11840;DHT22;5979;50.800;4.904;2022-09-09T11:10:53;19.40;99.90
11840;DHT22;5979;50.800;4.904;2022-09-09T11:13:35;19.40;99.90
11840;DHT22;5979;50.800;4.904;2022-09-09T11:16:23;19.50;99.90
11840;DHT22;5979;50.800;4.904;2022-09-09T11:19:02;19.50;99.90
11840;DHT22;5979;50.800;4.904;2022-09-09T11:21:38;19.50;99.90
11840;DHT22;5979;50.800;4.904;2022-09-09T11:24:29;19.50;99.90
11840;DHT22;5979;50.800;4.904;2022-09-09T11:36:15;19.60;99.90
11840;DHT22;5979;50.800;4.904;2022-09-09T11:38:50;19.70;99.90
11840;DHT22;5979;50.800;4.904;2022-09-09T11:41:18;19.80;99.90
11840;DHT22;5979;50.800;4.904;2022-09-09T11:43:51;19.90;99.90
11840;DHT22;5979;50.800;4.904;2022-09-09T11:46:19;20.00;99.90
11840;DHT22;5979;50.800;4.904;2022-09-09T11:48:58;19.90;99.90
11840;DHT22;5979;50.800;4.904;2022-09-09T11:51:25;20.00;99.90
11840;DHT22;5979;50.800;4.904;2022-09-09T11:54:00;20.00;99.90
11840;DHT22;5979;50.800;4.904;2022-09-09T11:56:45;20.00;99.90
11840;DHT22;5979;50.800;4.904;2022-09-09T11:59:21;20.00;99.90
11840;DHT22;5979;50.800;4.904;2022-09-09T12:01:56;20.00;99.90
11840;DHT22;5979;50.800;4.904;2022-09-09T12:09:30;20.00;99.90
11840;DHT22;5979;50.800;4.904;2022-09-09T12:15:02;20.10;99.90
11840;DHT22;5979;50.800;4.904;2022-09-09T12:17:30;20.20;99.90
11840;DHT22;5979;50.800;4.904;2022-09-09T12:20:18;20.20;99.90
11840;DHT22;5979;50.800;4.904;2022-09-09T12:23:30;20.20;99.90
11840;DHT22;5979;50.800;4.904;2022-09-09T12:28:49;20.10;99.90
11840;DHT22;5979;50.800;4.904;2022-09-09T12:34:08;20.10;99.90
11840;DHT22;5979;50.800;4.904;2022-09-09T12:36:35;20.10;99.90
11840;DHT22;5979;50.800;4.904;2022-09-09T12:39:19;20.00;99.90
11840;DHT22;5979;50.800;4.904;2022-09-09T12:41:52;20.10;99.90
11840;DHT22;5979;50.800;4.904;2022-09-09T12:44:25;20.20;99.90
11840;DHT22;5979;50.800;4.904;2022-09-09T12:46:54;20.30;99.90
11840;DHT22;5979;50.800;4.904;2022-09-09T12:49:31;20.50;99.90
11840;DHT22;5979;50.800;4.904;2022-09-09T12:52:06;20.60;99.90
11840;DHT22;5979;50.800;4.904;2022-09-09T12:54:34;20.70;99.90
11840;DHT22;5979;50.800;4.904;2022-09-09T12:57:01;20.80;99.90
11840;DHT22;5979;50.800;4.904;2022-09-09T12:59:36;21.00;99.90
11840;DHT22;5979;50.800;4.904;2022-09-09T13:02:02;21.10;99.90
11840;DHT22;5979;50.800;4.904;2022-09-09T13:04:28;21.20;99.90
11840;DHT22;5979;50.800;4.904;2022-09-09T13:06:53;21.30;99.90
11840;DHT22;5979;50.800;4.904;2022-09-09T13:09:20;21.20;99.90
11840;DHT22;5979;50.800;4.904;2022-09-09T13:11:52;21.20;99.90
11840;DHT22;5979;50.800;4.904;2022-09-09T13:14:34;21.20;99.90
11840;DHT22;5979;50.800;4.904;2022-09-09T13:17:04;21.00;99.90
11840;DHT22;5979;50.800;4.904;2022-09-09T13:19:35;20.80;99.90
11840;DHT22;5979;50.800;4.904;2022-09-09T13:22:12;20.70;99.90
11840;DHT22;5979;50.800;4.904;2022-09-09T13:24:38;20.70;99.90
11840;DHT22;5979;50.800;4.904;2022-09-09T13:27:31;20.60;99.90
11840;DHT22;5979;50.800;4.904;2022-09-09T13:29:57;20.60;99.90
11840;DHT22;5979;50.800;4.904;2022-09-09T13:32:24;20.70;99.90
11840;DHT22;5979;50.800;4.904;2022-09-09T13:35:22;20.80;99.90
11840;DHT22;5979;50.800;4.904;2022-09-09T13:37:49;20.90;99.90
11840;DHT22;5979;50.800;4.904;2022-09-09T13:40:20;21.00;99.90
11840;DHT22;5979;50.800;4.904;2022-09-09T13:42:47;21.10;99.90
11840;DHT22;5979;50.800;4.904;2022-09-09T13:45:19;21.20;99.90
11840;DHT22;5979;50.800;4.904;2022-09-09T13:47:49;21.30;99.90
11840;DHT22;5979;50.800;4.904;2022-09-09T13:50:22;21.40;99.90
11840;DHT22;5979;50.800;4.904;2022-09-09T13:52:50;21.40;99.90
11840;DHT22;5979;50.800;4.904;2022-09-09T13:55:17;21.40;99.90
11840;DHT22;5979;50.800;4.904;2022-09-09T13:57:54;21.40;99.90
11840;DHT22;5979;50.800;4.904;2022-09-09T14:00:21;21.40;99.90
11840;DHT22;5979;50.800;4.904;2022-09-09T14:02:48;21.20;99.90
11840;DHT22;5979;50.800;4.904;2022-09-09T14:05:15;21.10;99.90
11840;DHT22;5979;50.800;4.904;2022-09-09T14:07:42;21.00;99.90
11840;DHT22;5979;50.800;4.904;2022-09-09T14:10:09;21.00;99.90
11840;DHT22;5979;50.800;4.904;2022-09-09T14:12:35;21.00;99.90
11840;DHT22;5979;50.800;4.904;2022-09-09T14:15:02;21.00;99.90
11840;DHT22;5979;50.800;4.904;2022-09-09T14:17:28;21.10;99.90
11840;DHT22;5979;50.800;4.904;2022-09-09T14:19:57;21.10;99.90
11840;DHT22;5979;50.800;4.904;2022-09-09T14:22:23;21.30;99.90
11840;DHT22;5979;50.800;4.904;2022-09-09T14:24:49;21.40;99.90
11840;DHT22;5979;50.800;4.904;2022-09-09T14:27:16;21.50;99.90
11840;DHT22;5979;50.800;4.904;2022-09-09T14:29:43;21.60;99.90
11840;DHT22;5979;50.800;4.904;2022-09-09T14:32:10;21.50;99.90
11840;DHT22;5979;50.800;4.904;2022-09-09T14:34:35;21.60;99.90
11840;DHT22;5979;50.800;4.904;2022-09-09T14:37:01;21.50;99.90
11840;DHT22;5979;50.800;4.904;2022-09-09T14:39:27;21.50;99.90
11840;DHT22;5979;50.800;4.904;2022-09-09T14:41:53;21.50;99.90
11840;DHT22;5979;50.800;4.904;2022-09-09T14:44:19;21.60;99.90
11840;DHT22;5979;50.800;4.904;2022-09-09T14:46:44;21.60;99.90
11840;DHT22;5979;50.800;4.904;2022-09-09T14:49:10;21.60;99.90
11840;DHT22;5979;50.800;4.904;2022-09-09T14:51:36;21.60;99.90
11840;DHT22;5979;50.800;4.904;2022-09-09T14:54:02;21.60;99.90
11840;DHT22;5979;50.800;4.904;2022-09-09T14:56:30;21.50;99.90
11840;DHT22;5979;50.800;4.904;2022-09-09T14:58:57;21.50;99.90
11840;DHT22;5979;50.800;4.904;2022-09-09T15:01:24;21.50;99.90
11840;DHT22;5979;50.800;4.904;2022-09-09T15:04:12;21.50;99.90
11840;DHT22;5979;50.800;4.904;2022-09-09T15:06:40;21.50;99.90
11840;DHT22;5979;50.800;4.904;2022-09-09T15:09:08;21.50;99.90
11840;DHT22;5979;50.800;4.904;2022-09-09T15:11:36;21.40;99.90
11840;DHT22;5979;50.800;4.904;2022-09-09T15:14:05;21.30;99.90
11840;DHT22;5979;50.800;4.904;2022-09-09T15:16:31;21.30;99.90
11840;DHT22;5979;50.800;4.904;2022-09-09T15:18:59;21.30;99.90
11840;DHT22;5979;50.800;4.904;2022-09-09T15:21:30;21.30;99.90
11840;DHT22;5979;50.800;4.904;2022-09-09T15:23:56;21.30;99.90
11840;DHT22;5979;50.800;4.904;2022-09-09T15:26:22;21.40;99.90
11840;DHT22;5979;50.800;4.904;2022-09-09T15:28:48;21.50;99.90
11840;DHT22;5979;50.800;4.904;2022-09-09T15:31:26;21.50;99.90
11840;DHT22;5979;50.800;4.904;2022-09-09T15:34:04;21.50;99.90
11840;DHT22;5979;50.800;4.904;2022-09-09T15:36:32;21.20;99.90
11840;DHT22;5979;50.800;4.904;2022-09-09T15:38:59;21.10;99.90
11840;DHT22;5979;50.800;4.904;2022-09-09T15:41:25;21.00;99.90
11840;DHT22;5979;50.800;4.904;2022-09-09T15:43:52;20.90;99.90
11840;DHT22;5979;50.800;4.904;2022-09-09T15:48:57;20.60;99.90
11840;DHT22;5979;50.800;4.904;2022-09-09T15:51:24;20.50;99.90
11840;DHT22;5979;50.800;4.904;2022-09-09T15:53:57;20.40;99.90
11840;DHT22;5979;50.800;4.904;2022-09-09T15:56:27;20.30;99.90
11840;DHT22;5979;50.800;4.904;2022-09-09T15:58:55;20.30;99.90
11840;DHT22;5979;50.800;4.904;2022-09-09T16:01:20;20.20;99.90
11840;DHT22;5979;50.800;4.904;2022-09-09T16:03:46;20.20;99.90
11840;DHT22;5979;50.800;4.904;2022-09-09T16:06:17;20.20;99.90
11840;DHT22;5979;50.800;4.904;2022-09-09T16:08:45;20.30;99.90
11840;DHT22;5979;50.800;4.904;2022-09-09T16:11:20;20.30;99.90
11840;DHT22;5979;50.800;4.904;2022-09-09T16:13:47;20.40;99.90
11840;DHT22;5979;50.800;4.904;2022-09-09T16:16:14;20.40;99.90
11840;DHT22;5979;50.800;4.904;2022-09-09T16:18:42;20.40;99.90
11840;DHT22;5979;50.800;4.904;2022-09-09T16:21:17;20.40;99.90
11840;DHT22;5979;50.800;4.904;2022-09-09T16:23:44;20.40;99.90
11840;DHT22;5979;50.800;4.904;2022-09-09T16:26:14;20.30;99.90
11840;DHT22;5979;50.800;4.904;2022-09-09T16:28:40;20.30;99.90
11840;DHT22;5979;50.800;4.904;2022-09-09T16:31:07;20.30;99.90
11840;DHT22;5979;50.800;4.904;2022-09-09T16:33:33;20.40;99.90
11840;DHT22;5979;50.800;4.904;2022-09-09T16:36:05;20.30;99.90
11840;DHT22;5979;50.800;4.904;2022-09-09T16:38:31;20.40;99.90
11840;DHT22;5979;50.800;4.904;2022-09-09T16:41:00;20.40;99.90
11840;DHT22;5979;50.800;4.904;2022-09-09T16:43:26;20.40;99.90
11840;DHT22;5979;50.800;4.904;2022-09-09T16:45:51;20.40;99.90
11840;DHT22;5979;50.800;4.904;2022-09-09T16:48:17;20.40;99.90
11840;DHT22;5979;50.800;4.904;2022-09-09T16:50:43;20.40;99.90
11840;DHT22;5979;50.800;4.904;2022-09-09T16:53:08;20.40;99.90
11840;DHT22;5979;50.800;4.904;2022-09-09T16:55:41;20.30;99.90
11840;DHT22;5979;50.800;4.904;2022-09-09T16:58:10;20.30;99.90
11840;DHT22;5979;50.800;4.904;2022-09-09T17:00:36;20.30;99.90
11840;DHT22;5979;50.800;4.904;2022-09-09T17:03:01;20.20;99.90
11840;DHT22;5979;50.800;4.904;2022-09-09T17:05:28;20.20;99.90
11840;DHT22;5979;50.800;4.904;2022-09-09T17:07:54;20.10;99.90
11840;DHT22;5979;50.800;4.904;2022-09-09T17:10:24;20.10;99.90
11840;DHT22;5979;50.800;4.904;2022-09-09T17:12:50;20.00;99.90
11840;DHT22;5979;50.800;4.904;2022-09-09T17:15:16;19.90;99.90
11840;DHT22;5979;50.800;4.904;2022-09-09T17:17:43;19.90;99.90
11840;DHT22;5979;50.800;4.904;2022-09-09T17:20:10;19.80;99.90
11840;DHT22;5979;50.800;4.904;2022-09-09T17:22:36;19.80;99.90
11840;DHT22;5979;50.800;4.904;2022-09-09T17:25:03;19.70;99.90
11840;DHT22;5979;50.800;4.904;2022-09-09T17:27:29;19.60;99.90
11840;DHT22;5979;50.800;4.904;2022-09-09T17:29:57;19.60;99.90
11840;DHT22;5979;50.800;4.904;2022-09-09T17:32:23;19.50;99.90
11840;DHT22;5979;50.800;4.904;2022-09-09T17:34:49;19.40;99.90
11840;DHT22;5979;50.800;4.904;2022-09-09T17:37:15;19.30;99.90
11840;DHT22;5979;50.800;4.904;2022-09-09T17:39:40;19.30;99.90
11840;DHT22;5979;50.800;4.904;2022-09-09T17:42:06;19.20;99.90
11840;DHT22;5979;50.800;4.904;2022-09-09T17:44:34;19.20;99.90
11840;DHT22;5979;50.800;4.904;2022-09-09T17:47:00;19.20;99.90
11840;DHT22;5979;50.800;4.904;2022-09-09T17:49:26;19.20;99.90
11840;DHT22;5979;50.800;4.904;2022-09-09T17:51:52;19.10;99.90
11840;DHT22;5979;50.800;4.904;2022-09-09T17:54:19;19.10;99.90
11840;DHT22;5979;50.800;4.904;2022-09-09T17:56:46;19.10;99.90
11840;DHT22;5979;50.800;4.904;2022-09-09T17:59:13;19.00;99.90
11840;DHT22;5979;50.800;4.904;2022-09-09T18:01:41;19.00;99.90
11840;DHT22;5979;50.800;4.904;2022-09-09T18:04:10;18.90;99.90
11840;DHT22;5979;50.800;4.904;2022-09-09T18:06:41;18.90;99.90
11840;DHT22;5979;50.800;4.904;2022-09-09T18:09:10;18.80;99.90